CheckWX is a tool to help pilots better visualize weather data.  It is not intended as a substitute for an official pre-flight weather briefing.

22:52:39 UTC

SCFA METAR
Cerro Moreno Airport
Antofagasta, Chile
Current

53 mins ago

SCFA 202200Z 18008KT 9999 BKN022 15/10 Q1012 NOSIG
Observed
Jul-20 @ 22:00 UTC
Wind
  • 180° at 8 KTS
Visibility
10,000+ meters
Flight Rules
MVFR
Cloud Levels
  • Broken at 2,200' AGL
Temperature
15°C / 59°F
Dewpoint
10°C / 50°F
Humidity
72%
Altimeter
29.88" Hg
Pressure
1011.92 hPa
Previous

2 hours ago

SCFA 202100Z 19011KT 9999 BKN021 15/09 Q1012 NOSIG
Observed
Jul-20 @ 21:00 UTC
Wind
  • 190° at 11 KTS
Visibility
10,000+ meters
Flight Rules
MVFR
Cloud Levels
  • Broken at 2,100' AGL
Temperature
15°C / 59°F
Dewpoint
C / 48°F
Humidity
68%
Altimeter
29.88" Hg
Pressure
1011.92 hPa
Previous

3 hours ago

SCFA 202000Z 20011KT 9999 FEW020 16/09 Q1011 NOSIG
Observed
Jul-20 @ 20:00 UTC
Wind
  • 200° at 11 KTS
Visibility
10,000+ meters
Flight Rules
VFR
Cloud Levels
  • Few at 2,000' AGL
Temperature
16°C / 61°F
Dewpoint
C / 48°F
Humidity
63%
Altimeter
29.85" Hg
Pressure
1010.92 hPa